Cowen, West Virginia
Current Conditions -  °F | °C
As of 11:15 PM on Wednesday 17 Dec 2014 (Local Time) from KLWB Reporting Station
Overcast Overcast  
Wind Chill: 24°   Ceiling: 2200
Heat Index: 32°   Visibility: 10mi
Dew Point: 24°   Wind: 10mph
Humidity: 73%   Direction: 280°W
Pressure: 30.1"   Gusts: NA
Location:  38.41°N, 80.56°W
Report Text: KLWB 180415Z AUTO 28009KT 250V310 10SM OVC022 00/M04 A3010 RMK AO2 T00011043
Loading
Personal Weather Stations






























Interactive Weather Map New forecast layout! Learn more

10-Day Weather Forecast

Advertisements
Track Severe Weather on mobile